Topsfield, MA

7:46 PM EST on December 17, 2014 (GMT -0500)
Public Works Facility | Change Station
CLOSE
Current Station
Personal Weather Station
Location: Topsfield, MA
Elevation: 233 ft
Nearby Weather Stations

Elev 233 ft 42.64 °N, 70.94 °W | Updated 9 seconds ago

Overcast
Overcast
43.3 °F
Feels Like 43 °F
N
2.0
Wind Variable Wind from SW
Gusts 4.0 mph

Today
High -- | Low -- °F
--% Chance of Precip.
Yesterday
High -- | Low -- °F
Precip. -- in
7:08 AM 4:11 PM
Waning Crescent, 18% visible
Pressure 29.71 in
Visibility 10.0 miles
Clouds Mostly Cloudy 2700 ft
Overcast 3400 ft
Windchill 43 °F
Dew Point 40 °F
Humidity 88%
Rainfall 0.46 in
Snow Depth Not available.
UV 0.0 out of 12
Pollen .10 out of 12
Air Quality Not available.
Flu Activity Not available.
SPECI KBVY 180021Z 28008KT 10SM BKN027 OVC034 07/03 A2971 RMK AO2 T00720033

More Conditions Fewer Conditions

Pressure 29.71 in
Visibility 10.0 miles
Clouds Mostly Cloudy 2700 ft
Overcast 3400 ft
Windchill 43 °F
Dew Point 40 °F
Humidity 88%
Rainfall 0.46 in
Snow Depth Not available.
UV 0.0 out of 12
Pollen .10 out of 12
Air Quality Not available.
Flu Activity Not available.
SPECI KBVY 180021Z 28008KT 10SM BKN027 OVC034 07/03 A2971 RMK AO2 T00720033

More Conditions Fewer Conditions

10-Day Weather Forecast

Almanac

Astronomy

Dec. 17, 2014 Rise Set
Actual Time
Civil Twilight
Nautical Twilight
Astronomical Twilight
Moon
Length of Visible Light
Length of Day
Tomorrow will be .
, % of the Moon is Illuminated

Today's Extremes

State Highs State Lows

Community

WunderPhotos

Upload Photos

1,778,837 photos uploaded!

WunderBlogs® & News

Nearby

Air Quality

  Air Quality AQ Index Pollutant
Not available.

Snow Depth

Station Depth Elevation

Earthquake Activity

City Distance Mag. Time & Date
Minimum magnitude displayed is 2.5.

Coastal Water Temperatures

Place Temperature

Nearby Weather Stations